Time,TemperatureF,DewpointF,PressureIn,WindDirection,WindDirectionDegrees,WindSpeedMPH,WindSpeedGustMPH,Humidity,HourlyPrecipIn,Conditions,Clouds,dailyrainin,SoftwareType,DateUTC
2013-05-31 00:02:00,51.3,18.3,29.74,NW,323,7.0,7.0,27,0.00,,,0.00,meteohub,2013-05-31 06:02:00,
2013-05-31 00:07:00,51.8,17.1,29.74,NW,326,4.0,14.0,25,0.00,,,0.00,meteohub,2013-05-31 06:07:00,
2013-05-31 00:12:00,52.2,16.5,29.74,NW,319,8.0,14.0,24,0.00,,,0.00,meteohub,2013-05-31 06:12:00,
2013-05-31 00:17:00,52.5,15.8,29.74,NNW,340,4.0,14.0,23,0.00,,,0.00,meteohub,2013-05-31 06:17:00,
2013-05-31 00:22:00,52.5,15.8,29.73,NNW,333,9.0,13.0,23,0.00,,,0.00,meteohub,2013-05-31 06:22:00,
2013-05-31 00:27:00,52.5,14.7,29.73,NNW,328,10.0,16.0,22,0.00,,,0.00,meteohub,2013-05-31 06:27:00,
2013-05-31 00:32:00,52.3,18.5,29.73,NNW,330,6.0,16.0,26,0.00,,,0.00,meteohub,2013-05-31 06:32:00,
2013-05-31 00:37:00,51.3,20.1,29.73,NNE,19,3.0,16.0,29,0.00,,,0.00,meteohub,2013-05-31 06:37:00,
2013-05-31 00:42:00,50.5,20.3,29.74,NNW,336,6.0,12.0,30,0.00,,,0.00,meteohub,2013-05-31 06:42:00,
2013-05-31 00:47:00,50.0,20.5,29.74,NW,326,3.0,9.0,31,0.00,,,0.00,meteohub,2013-05-31 06:47:00,
2013-05-31 00:52:00,49.8,18.9,29.75,NNW,343,10.0,10.0,29,0.00,,,0.00,meteohub,2013-05-31 06:52:00,
2013-05-31 00:57:00,49.8,19.6,29.75,SSE,156,1.0,10.0,30,0.00,,,0.00,meteohub,2013-05-31 06:57:00,
2013-05-31 01:02:00,50.0,18.1,29.75,WSW,242,10.0,10.0,28,0.00,,,0.00,meteohub,2013-05-31 07:02:00,
2013-05-31 01:07:00,50.2,20.7,29.75,West,270,7.0,13.0,31,0.00,,,0.00,meteohub,2013-05-31 07:07:00,
2013-05-31 01:12:00,49.5,21.6,29.75,WSW,240,7.0,13.0,33,0.00,,,0.00,meteohub,2013-05-31 07:12:00,
2013-05-31 01:17:00,48.9,21.0,29.75,SW,232,8.0,13.0,33,0.00,,,0.00,meteohub,2013-05-31 07:17:00,
2013-05-31 01:22:00,48.6,21.4,29.76,West,266,4.0,15.0,34,0.00,,,0.00,meteohub,2013-05-31 07:22:00,
2013-05-31 01:27:00,48.6,21.4,29.75,SW,219,2.0,15.0,34,0.00,,,0.00,meteohub,2013-05-31 07:27:00,
2013-05-31 01:32:00,48.6,21.4,29.76,NW,312,2.0,15.0,34,0.00,,,0.00,meteohub,2013-05-31 07:32:00,
2013-05-31 01:37:00,48.6,20.8,29.77,NNE,30,11.0,11.0,33,0.00,,,0.00,meteohub,2013-05-31 07:37:00,
2013-05-31 01:42:00,48.7,19.4,29.77,NW,320,7.0,20.0,31,0.00,,,0.00,meteohub,2013-05-31 07:42:00,
2013-05-31 01:47:00,48.9,18.9,29.76,NNW,340,10.0,20.0,30,0.00,,,0.00,meteohub,2013-05-31 07:47:00,
2013-05-31 01:52:00,48.6,20.8,29.77,NNW,328,19.0,20.0,33,0.00,,,0.00,meteohub,2013-05-31 07:52:00,
2013-05-31 01:57:00,47.7,21.4,29.77,NNW,338,11.0,24.0,35,0.00,,,0.00,meteohub,2013-05-31 07:57:00,
2013-05-31 02:02:00,47.5,21.2,29.78,NNW,335,9.0,24.0,35,0.00,,,0.00,meteohub,2013-05-31 08:02:00,
2013-05-31 02:07:00,47.3,21.7,29.78,WSW,245,4.0,24.0,36,0.00,,,0.00,meteohub,2013-05-31 08:07:00,
2013-05-31 02:12:00,47.1,21.6,29.77,WNW,284,1.0,23.0,36,0.00,,,0.00,meteohub,2013-05-31 08:12:00,
2013-05-31 02:17:00,46.8,21.9,29.76,West,269,2.0,19.0,37,0.00,,,0.00,meteohub,2013-05-31 08:17:00,
2013-05-31 02:22:00,46.8,21.9,29.76,NW,325,1.0,7.0,37,0.00,,,0.00,meteohub,2013-05-31 08:22:00,
2013-05-31 02:27:00,46.4,21.6,29.77,SW,215,3.0,7.0,37,0.00,,,0.00,meteohub,2013-05-31 08:27:00,
2013-05-31 02:32:00,46.0,23.7,29.76,SSE,160,3.0,7.0,41,0.00,,,0.00,meteohub,2013-05-31 08:32:00,
2013-05-31 02:37:00,45.1,24.4,29.76,SW,227,5.0,10.0,44,0.00,,,0.00,meteohub,2013-05-31 08:37:00,
2013-05-31 02:42:00,44.8,24.8,29.75,WSW,256,4.0,13.0,45,0.00,,,0.00,meteohub,2013-05-31 08:42:00,
2013-05-31 02:47:00,44.2,25.3,29.76,WSW,255,3.0,13.0,47,0.00,,,0.00,meteohub,2013-05-31 08:47:00,
2013-05-31 02:52:00,44.1,25.7,29.75,NE,44,5.0,13.0,48,0.00,,,0.00,meteohub,2013-05-31 08:52:00,
2013-05-31 02:57:00,44.1,24.6,29.77,North,358,0.0,10.0,46,0.00,,,0.00,meteohub,2013-05-31 08:57:00,
2013-05-31 03:02:00,44.2,24.8,29.75,ESE,103,2.0,7.0,46,0.00,,,0.00,meteohub,2013-05-31 09:02:00,
2013-05-31 03:07:00,44.2,24.3,29.75,North,354,4.0,7.0,45,0.00,,,0.00,meteohub,2013-05-31 09:07:00,
2013-05-31 03:12:00,44.1,25.2,29.75,NNE,16,4.0,9.0,47,0.00,,,0.00,meteohub,2013-05-31 09:12:00,
2013-05-31 03:17:00,43.7,25.3,29.74,North,349,9.0,9.0,48,0.00,,,0.00,meteohub,2013-05-31 09:17:00,
2013-05-31 03:22:00,43.3,25.5,29.74,NW,321,5.0,10.0,49,0.00,,,0.00,meteohub,2013-05-31 09:22:00,
2013-05-31 03:27:00,43.3,25.5,29.75,NW,315,4.0,11.0,49,0.00,,,0.00,meteohub,2013-05-31 09:27:00,
2013-05-31 03:32:00,43.5,25.2,29.75,NNW,340,4.0,11.0,48,0.00,,,0.00,meteohub,2013-05-31 09:32:00,
2013-05-31 03:37:00,43.5,25.2,29.75,NNE,33,2.0,8.0,48,0.00,,,0.00,meteohub,2013-05-31 09:37:00,
2013-05-31 03:42:00,43.3,25.0,29.75,NE,36,0.0,5.0,48,0.00,,,0.00,meteohub,2013-05-31 09:42:00,
2013-05-31 03:47:00,43.3,25.0,29.75,SE,132,0.0,5.0,48,0.00,,,0.00,meteohub,2013-05-31 09:47:00,
2013-05-31 03:52:00,43.2,24.8,29.75,SE,134,0.0,3.0,48,0.00,,,0.00,meteohub,2013-05-31 09:52:00,
2013-05-31 03:57:00,43.2,25.3,29.75,WNW,301,1.0,2.0,49,0.00,,,0.00,meteohub,2013-05-31 09:57:00,
2013-05-31 04:02:00,43.0,25.2,29.75,SW,233,1.0,3.0,49,0.00,,,0.00,meteohub,2013-05-31 10:02:00,
2013-05-31 04:07:00,43.0,25.2,29.75,SSE,158,5.0,5.0,49,0.00,,,0.00,meteohub,2013-05-31 10:07:00,
2013-05-31 04:12:00,43.2,24.8,29.75,SW,221,0.0,5.0,48,0.00,,,0.00,meteohub,2013-05-31 10:12:00,
2013-05-31 04:17:00,43.0,25.2,29.75,WNW,294,4.0,5.0,49,0.00,,,0.00,meteohub,2013-05-31 10:17:00,
2013-05-31 04:22:00,43.2,24.8,29.76,WSW,240,2.0,8.0,48,0.00,,,0.00,meteohub,2013-05-31 10:22:00,
2013-05-31 04:27:00,43.3,24.4,29.75,WNW,285,2.0,8.0,47,0.00,,,0.00,meteohub,2013-05-31 10:27:00,
2013-05-31 04:32:00,43.5,24.1,29.76,West,264,1.0,5.0,46,0.00,,,0.00,meteohub,2013-05-31 10:32:00,
2013-05-31 04:37:00,43.9,24.4,29.75,SW,228,1.0,5.0,46,0.00,,,0.00,meteohub,2013-05-31 10:37:00,
2013-05-31 04:42:00,44.1,24.1,29.75,SSW,210,2.0,4.0,45,0.00,,,0.00,meteohub,2013-05-31 10:42:00,
2013-05-31 04:47:00,44.1,23.0,29.75,SSW,210,1.0,3.0,43,0.00,,,0.00,meteohub,2013-05-31 10:47:00,
2013-05-31 04:52:00,43.5,24.1,29.75,NW,324,1.0,3.0,46,0.00,,,0.00,meteohub,2013-05-31 10:52:00,
2013-05-31 04:57:00,43.3,22.8,29.74,WNW,300,2.0,3.0,44,0.00,,,0.00,meteohub,2013-05-31 10:57:00,
2013-05-31 05:02:00,43.0,23.5,29.75,SSE,156,4.0,4.0,46,0.00,,,0.00,meteohub,2013-05-31 11:02:00,
2013-05-31 05:07:00,42.4,23.7,29.75,WSW,253,5.0,5.0,47,0.00,,,0.00,meteohub,2013-05-31 11:07:00,
2013-05-31 05:12:00,42.3,25.0,29.75,WSW,242,4.0,4.0,50,0.00,,,0.00,meteohub,2013-05-31 11:12:00,
2013-05-31 05:17:00,41.9,25.5,29.74,SSW,212,5.0,10.0,52,0.00,,,0.00,meteohub,2013-05-31 11:17:00,
2013-05-31 05:22:00,41.9,26.1,29.74,SW,217,4.0,10.0,53,0.00,,,0.00,meteohub,2013-05-31 11:22:00,
2013-05-31 05:27:00,42.1,25.7,29.74,West,260,5.0,9.0,52,0.00,,,0.00,meteohub,2013-05-31 11:27:00,
2013-05-31 05:32:00,42.1,25.3,29.74,WNW,283,2.0,9.0,51,0.00,,,0.00,meteohub,2013-05-31 11:32:00,
2013-05-31 05:37:00,41.9,25.5,29.74,SW,229,4.0,9.0,52,0.00,,,0.00,meteohub,2013-05-31 11:37:00,
2013-05-31 05:42:00,41.7,25.3,29.74,WNW,283,1.0,6.0,52,0.00,,,0.00,meteohub,2013-05-31 11:42:00,
2013-05-31 05:47:00,41.5,25.2,29.74,SW,235,5.0,5.0,52,0.00,,,0.00,meteohub,2013-05-31 11:47:00,
2013-05-31 05:52:00,42.1,24.3,29.75,WSW,250,3.0,6.0,49,0.00,,,0.00,meteohub,2013-05-31 11:52:00,
2013-05-31 05:57:00,42.3,25.0,29.75,NNE,26,3.0,6.0,50,0.00,,,0.00,meteohub,2013-05-31 11:57:00,
2013-05-31 06:02:00,40.8,24.1,29.75,NW,309,0.0,7.0,51,0.00,,,0.00,meteohub,2013-05-31 12:02:00,
2013-05-31 06:07:00,40.6,24.4,29.75,NNE,26,4.0,7.0,52,0.00,,,0.00,meteohub,2013-05-31 12:07:00,
2013-05-31 06:12:00,41.0,24.8,29.76,NNE,32,2.0,7.0,52,0.00,,,0.00,meteohub,2013-05-31 12:12:00,
2013-05-31 06:17:00,41.5,25.2,29.76,NNE,25,1.0,6.0,52,0.00,,,0.00,meteohub,2013-05-31 12:17:00,
2013-05-31 06:22:00,42.1,25.7,29.78,NNE,20,0.0,6.0,52,0.00,,,0.00,meteohub,2013-05-31 12:22:00,
2013-05-31 06:27:00,42.1,25.3,29.77,NNE,23,0.0,5.0,51,0.00,,,0.00,meteohub,2013-05-31 12:27:00,
2013-05-31 06:32:00,42.1,25.7,29.78,SSE,159,0.0,1.0,52,0.00,,,0.00,meteohub,2013-05-31 12:32:00,
2013-05-31 06:37:00,42.1,25.7,29.77,NNW,329,3.0,3.0,52,0.00,,,0.00,meteohub,2013-05-31 12:37:00,
2013-05-31 06:42:00,41.7,25.9,29.77,North,7,3.0,4.0,53,0.00,,,0.00,meteohub,2013-05-31 12:42:00,
2013-05-31 06:47:00,42.3,23.9,29.77,NNW,340,8.0,8.0,48,0.00,,,0.00,meteohub,2013-05-31 12:47:00,
2013-05-31 06:52:00,43.2,23.7,29.78,WNW,300,3.0,17.0,46,0.00,,,0.00,meteohub,2013-05-31 12:52:00,
2013-05-31 06:57:00,43.2,25.3,29.77,SSE,158,3.0,17.0,49,0.00,,,0.00,meteohub,2013-05-31 12:57:00,
2013-05-31 07:02:00,43.7,23.7,29.78,SSW,198,0.0,17.0,45,0.00,,,0.00,meteohub,2013-05-31 13:02:00,
2013-05-31 07:07:00,44.2,25.3,29.78,South,181,7.0,7.0,47,0.00,,,0.00,meteohub,2013-05-31 13:07:00,
2013-05-31 07:12:00,44.8,24.3,29.78,West,260,13.0,13.0,44,0.00,,,0.00,meteohub,2013-05-31 13:12:00,
2013-05-31 07:17:00,44.8,24.3,29.76,SW,221,4.0,19.0,44,0.00,,,0.00,meteohub,2013-05-31 13:17:00,
2013-05-31 07:22:00,45.5,24.3,29.77,SSW,211,7.0,19.0,43,0.00,,,0.00,meteohub,2013-05-31 13:22:00,
2013-05-31 07:27:00,45.7,25.0,29.77,SSW,212,10.0,19.0,44,0.00,,,0.00,meteohub,2013-05-31 13:27:00,
2013-05-31 07:32:00,45.7,25.0,29.78,SW,217,1.0,16.0,44,0.00,,,0.00,meteohub,2013-05-31 13:32:00,
2013-05-31 07:37:00,45.9,25.2,29.78,South,191,6.0,16.0,44,0.00,,,0.00,meteohub,2013-05-31 13:37:00,
2013-05-31 07:42:00,46.2,25.0,29.78,SSW,204,6.0,13.0,43,0.00,,,0.00,meteohub,2013-05-31 13:42:00,
2013-05-31 07:47:00,46.9,24.4,29.77,SE,143,9.0,13.0,41,0.00,,,0.00,meteohub,2013-05-31 13:47:00,
2013-05-31 07:52:00,47.7,23.9,29.78,WSW,239,2.0,13.0,39,0.00,,,0.00,meteohub,2013-05-31 13:52:00,
2013-05-31 07:57:00,48.0,23.5,29.78,NW,312,4.0,12.0,38,0.00,,,0.00,meteohub,2013-05-31 13:57:00,
2013-05-31 08:02:00,48.4,21.9,29.78,NW,325,8.0,16.0,35,0.00,,,0.00,meteohub,2013-05-31 14:02:00,
2013-05-31 08:07:00,48.6,21.4,29.78,NW,307,8.0,17.0,34,0.00,,,0.00,meteohub,2013-05-31 14:07:00,
2013-05-31 08:12:00,48.6,22.1,29.78,NNW,340,9.0,17.0,35,0.00,,,0.00,meteohub,2013-05-31 14:12:00,
2013-05-31 08:17:00,48.7,21.6,29.77,NNW,336,9.0,17.0,34,0.00,,,0.00,meteohub,2013-05-31 14:17:00,
2013-05-31 08:22:00,49.1,22.6,29.78,NW,326,12.0,17.0,35,0.00,,,0.00,meteohub,2013-05-31 14:22:00,
2013-05-31 08:27:00,48.9,21.7,29.78,NW,312,5.0,17.0,34,0.00,,,0.00,meteohub,2013-05-31 14:27:00,
2013-05-31 08:32:00,49.5,19.2,29.78,West,269,4.0,17.0,30,0.00,,,0.00,meteohub,2013-05-31 14:32:00,
2013-05-31 08:37:00,49.5,16.9,29.77,WNW,297,11.0,22.0,27,0.00,,,0.00,meteohub,2013-05-31 14:37:00,
2013-05-31 08:42:00,49.3,17.6,29.78,NNW,328,20.0,30.0,28,0.00,,,0.00,meteohub,2013-05-31 14:42:00,
2013-05-31 08:47:00,49.3,17.6,29.78,WNW,300,11.0,30.0,28,0.00,,,0.00,meteohub,2013-05-31 14:47:00,
2013-05-31 08:52:00,49.5,16.9,29.78,WNW,303,10.0,25.0,27,0.00,,,0.00,meteohub,2013-05-31 14:52:00,
2013-05-31 08:57:00,49.8,17.2,29.78,NW,309,9.0,25.0,27,0.00,,,0.00,meteohub,2013-05-31 14:57:00,
2013-05-31 09:02:00,50.0,18.1,29.77,NW,312,9.0,24.0,28,0.00,,,0.00,meteohub,2013-05-31 15:02:00,
2013-05-31 09:07:00,50.4,17.6,29.77,NNW,328,18.0,18.0,27,0.00,,,0.00,meteohub,2013-05-31 15:07:00,
2013-05-31 09:12:00,50.2,15.6,29.77,NW,319,1.0,23.0,25,0.00,,,0.00,meteohub,2013-05-31 15:12:00,
2013-05-31 09:17:00,50.4,16.7,29.77,WNW,295,6.0,23.0,26,0.00,,,0.00,meteohub,2013-05-31 15:17:00,
2013-05-31 09:22:00,50.5,16.9,29.76,West,268,16.0,31.0,26,0.00,,,0.00,meteohub,2013-05-31 15:22:00,
2013-05-31 09:27:00,50.7,15.3,29.76,WNW,295,13.0,31.0,24,0.00,,,0.00,meteohub,2013-05-31 15:27:00,
2013-05-31 09:32:00,50.5,16.9,29.75,NNW,335,15.0,31.0,26,0.00,,,0.00,meteohub,2013-05-31 15:32:00,
2013-05-31 09:37:00,51.3,14.7,29.75,NNW,336,23.0,24.0,23,0.00,,,0.00,meteohub,2013-05-31 15:37:00,
2013-05-31 09:42:00,51.3,15.6,29.76,NNW,340,9.0,36.0,24,0.00,,,0.00,meteohub,2013-05-31 15:42:00,
2013-05-31 09:47:00,51.6,16.0,29.76,NNW,333,9.0,36.0,24,0.00,,,0.00,meteohub,2013-05-31 15:47:00,
2013-05-31 09:52:00,52.3,16.5,29.75,NW,318,13.0,36.0,24,0.00,,,0.00,meteohub,2013-05-31 15:52:00,
2013-05-31 09:57:00,52.7,16.9,29.75,NW,319,26.0,26.0,24,0.00,,,0.00,meteohub,2013-05-31 15:57:00,
2013-05-31 10:02:00,52.2,17.4,29.76,NNW,346,17.0,33.0,25,0.00,,,0.00,meteohub,2013-05-31 16:02:00,
2013-05-31 10:07:00,52.5,16.7,29.75,NW,304,12.0,33.0,24,0.00,,,0.00,meteohub,2013-05-31 16:07:00,
2013-05-31 10:12:00,52.9,15.1,29.75,NNW,343,24.0,33.0,22,0.00,,,0.00,meteohub,2013-05-31 16:12:00,
2013-05-31 10:17:00,52.0,15.3,29.75,NW,308,19.0,29.0,23,0.00,,,0.00,meteohub,2013-05-31 16:17:00,
2013-05-31 10:22:00,51.6,15.1,29.76,West,269,11.0,29.0,23,0.00,,,0.00,meteohub,2013-05-31 16:22:00,
2013-05-31 10:27:00,51.6,15.1,29.75,NNW,328,13.0,29.0,23,0.00,,,0.00,meteohub,2013-05-31 16:27:00,
2013-05-31 10:32:00,51.6,16.0,29.75,NW,314,5.0,29.0,24,0.00,,,0.00,meteohub,2013-05-31 16:32:00,
2013-05-31 10:37:00,52.2,16.5,29.75,NW,314,9.0,27.0,24,0.00,,,0.00,meteohub,2013-05-31 16:37:00,
2013-05-31 10:42:00,52.9,17.1,29.75,NNW,332,20.0,24.0,24,0.00,,,0.00,meteohub,2013-05-31 16:42:00,
2013-05-31 10:47:00,53.2,16.3,29.75,NW,316,15.0,28.0,23,0.00,,,0.00,meteohub,2013-05-31 16:47:00,
2013-05-31 10:52:00,53.4,17.6,29.75,North,1,4.0,28.0,24,0.00,,,0.00,meteohub,2013-05-31 16:52:00,
2013-05-31 10:57:00,55.2,17.1,29.75,WNW,288,5.0,28.0,22,0.00,,,0.00,meteohub,2013-05-31 16:57:00,
2013-05-31 11:02:00,54.3,14.0,29.75,NW,310,13.0,26.0,20,0.00,,,0.00,meteohub,2013-05-31 17:02:00,
2013-05-31 11:07:00,54.9,13.3,29.75,NW,308,8.0,28.0,19,0.00,,,0.00,meteohub,2013-05-31 17:07:00,
2013-05-31 11:12:00,55.0,12.2,29.75,NW,316,15.0,29.0,18,0.00,,,0.00,meteohub,2013-05-31 17:12:00,
2013-05-31 11:17:00,54.3,14.0,29.75,WNW,303,1.0,29.0,20,0.00,,,0.00,meteohub,2013-05-31 17:17:00,
2013-05-31 11:22:00,54.9,13.3,29.75,SE,143,4.0,29.0,19,0.00,,,0.00,meteohub,2013-05-31 17:22:00,
2013-05-31 11:27:00,55.0,12.2,29.75,SSW,209,8.0,21.0,18,0.00,,,0.00,meteohub,2013-05-31 17:27:00,
2013-05-31 11:32:00,55.2,12.4,29.75,WNW,297,4.0,18.0,18,0.00,,,0.00,meteohub,2013-05-31 17:32:00,
2013-05-31 11:37:00,55.4,9.9,29.75,West,280,8.0,18.0,16,0.00,,,0.00,meteohub,2013-05-31 17:37:00,
2013-05-31 11:42:00,55.9,11.7,29.75,WSW,250,2.0,18.0,17,0.00,,,0.00,meteohub,2013-05-31 17:42:00,
2013-05-31 11:47:00,56.3,10.6,29.74,NW,325,14.0,17.0,16,0.00,,,0.00,meteohub,2013-05-31 17:47:00,
2013-05-31 11:52:00,57.0,12.6,29.74,WSW,258,11.0,18.0,17,0.00,,,0.00,meteohub,2013-05-31 17:52:00,
2013-05-31 11:57:00,57.4,11.5,29.75,SW,228,6.0,19.0,16,0.00,,,0.00,meteohub,2013-05-31 17:57:00,
2013-05-31 12:02:00,56.5,10.8,29.74,West,281,4.0,19.0,16,0.00,,,0.00,meteohub,2013-05-31 18:02:00,
2013-05-31 12:07:00,56.1,11.8,29.75,WNW,283,8.0,19.0,17,0.00,,,0.00,meteohub,2013-05-31 18:07:00,
2013-05-31 12:12:00,56.8,11.1,29.74,NNW,328,11.0,15.0,16,0.00,,,0.00,meteohub,2013-05-31 18:12:00,
2013-05-31 12:17:00,57.0,9.9,29.75,WSW,258,19.0,23.0,15,0.00,,,0.00,meteohub,2013-05-31 18:17:00,
2013-05-31 12:22:00,56.5,10.8,29.74,NNW,342,13.0,25.0,16,0.00,,,0.00,meteohub,2013-05-31 18:22:00,
2013-05-31 12:27:00,56.8,11.1,29.74,West,274,3.0,25.0,16,0.00,,,0.00,meteohub,2013-05-31 18:27:00,
2013-05-31 12:32:00,56.1,11.8,29.75,NW,317,8.0,25.0,17,0.00,,,0.00,meteohub,2013-05-31 18:32:00,
2013-05-31 12:37:00,56.5,12.2,29.74,NW,317,11.0,22.0,17,0.00,,,0.00,meteohub,2013-05-31 18:37:00,
2013-05-31 12:42:00,56.5,14.7,29.74,NNW,336,12.0,27.0,19,0.00,,,0.00,meteohub,2013-05-31 18:42:00,
2013-05-31 12:47:00,56.5,14.7,29.74,NNW,330,21.0,27.0,19,0.00,,,0.00,meteohub,2013-05-31 18:47:00,
2013-05-31 12:52:00,55.9,15.4,29.74,NW,308,7.0,27.0,20,0.00,,,0.00,meteohub,2013-05-31 18:52:00,
2013-05-31 12:57:00,55.9,15.4,29.73,NE,49,19.0,27.0,20,0.00,,,0.00,meteohub,2013-05-31 18:57:00,
2013-05-31 13:02:00,55.8,12.9,29.73,NNW,328,21.0,31.0,18,0.00,,,0.00,meteohub,2013-05-31 19:02:00,
2013-05-31 13:07:00,56.5,14.7,29.74,WNW,288,7.0,31.0,19,0.00,,,0.00,meteohub,2013-05-31 19:07:00,
2013-05-31 13:12:00,56.7,13.6,29.73,NNW,347,11.0,31.0,18,0.00,,,0.00,meteohub,2013-05-31 19:12:00,
2013-05-31 13:17:00,56.3,12.0,29.74,NW,321,4.0,35.0,17,0.00,,,0.00,meteohub,2013-05-31 19:17:00,
2013-05-31 13:22:00,56.7,10.9,29.73,NW,318,12.0,35.0,16,0.00,,,0.00,meteohub,2013-05-31 19:22:00,
2013-05-31 13:27:00,57.4,11.5,29.74,NNW,344,3.0,35.0,16,0.00,,,0.00,meteohub,2013-05-31 19:27:00,
2013-05-31 13:32:00,56.7,9.5,29.73,NW,312,15.0,27.0,15,0.00,,,0.00,meteohub,2013-05-31 19:32:00,
2013-05-31 13:37:00,56.5,9.3,29.73,NW,323,14.0,38.0,15,0.00,,,0.00,meteohub,2013-05-31 19:37:00,
2013-05-31 13:42:00,56.8,11.1,29.73,NNW,334,10.0,38.0,16,0.00,,,0.00,meteohub,2013-05-31 19:42:00,
2013-05-31 13:47:00,57.0,11.3,29.73,WNW,294,9.0,38.0,16,0.00,,,0.00,meteohub,2013-05-31 19:47:00,
2013-05-31 13:52:00,57.0,9.9,29.73,NW,316,10.0,39.0,15,0.00,,,0.00,meteohub,2013-05-31 19:52:00,
2013-05-31 13:57:00,57.4,11.5,29.73,West,269,8.0,39.0,16,0.00,,,0.00,meteohub,2013-05-31 19:57:00,
2013-05-31 14:02:00,58.3,10.8,29.73,NW,314,9.0,27.0,15,0.00,,,0.00,meteohub,2013-05-31 20:02:00,
2013-05-31 14:08:00,59.0,9.9,29.73,NNW,336,12.0,23.0,14,0.00,,,0.00,meteohub,2013-05-31 20:08:00,
2013-05-31 14:13:00,58.5,9.5,29.73,NNW,338,14.0,21.0,14,0.00,,,0.00,meteohub,2013-05-31 20:13:00,
2013-05-31 14:18:00,58.3,9.3,29.74,NW,308,10.0,32.0,14,0.00,,,0.00,meteohub,2013-05-31 20:18:00,
2013-05-31 14:23:00,58.3,7.7,29.74,West,277,6.0,35.0,13,0.00,,,0.00,meteohub,2013-05-31 20:23:00,
2013-05-31 14:28:00,58.3,5.9,29.74,NW,313,13.0,35.0,12,0.00,,,0.00,meteohub,2013-05-31 20:28:00,
2013-05-31 14:33:00,57.9,5.5,29.73,WNW,294,10.0,35.0,12,0.00,,,0.00,meteohub,2013-05-31 20:33:00,
2013-05-31 14:38:00,57.9,7.3,29.73,NW,318,10.0,35.0,13,0.00,,,0.00,meteohub,2013-05-31 20:38:00,
2013-05-31 14:43:00,58.6,7.9,29.73,NW,324,11.0,35.0,13,0.00,,,0.00,meteohub,2013-05-31 20:43:00,
2013-05-31 14:48:00,58.1,5.7,29.74,SW,226,9.0,35.0,12,0.00,,,0.00,meteohub,2013-05-31 20:48:00,
2013-05-31 14:53:00,58.6,6.1,29.73,WSW,245,12.0,35.0,12,0.00,,,0.00,meteohub,2013-05-31 20:53:00,
2013-05-31 14:58:00,58.8,8.1,29.74,West,278,4.0,20.0,13,0.00,,,0.00,meteohub,2013-05-31 20:58:00,
2013-05-31 15:03:00,59.5,8.6,29.74,NW,307,7.0,20.0,13,0.00,,,0.00,meteohub,2013-05-31 21:03:00,
2013-05-31 15:08:00,59.2,6.6,29.74,NW,325,12.0,20.0,12,0.00,,,0.00,meteohub,2013-05-31 21:08:00,
2013-05-31 15:13:00,59.2,8.4,29.74,West,281,9.0,17.0,13,0.00,,,0.00,meteohub,2013-05-31 21:13:00,
2013-05-31 15:19:00,58.6,7.9,29.74,NW,323,15.0,20.0,13,0.00,,,0.00,meteohub,2013-05-31 21:19:00,
2013-05-31 15:24:00,57.7,8.8,29.74,NW,325,8.0,24.0,14,0.00,,,0.00,meteohub,2013-05-31 21:24:00,
2013-05-31 15:29:00,58.3,9.3,29.73,NW,325,22.0,24.0,14,0.00,,,0.00,meteohub,2013-05-31 21:29:00,
2013-05-31 15:34:00,58.3,7.7,29.74,North,349,15.0,24.0,13,0.00,,,0.00,meteohub,2013-05-31 21:34:00,
2013-05-31 15:39:00,58.8,9.7,29.75,NNW,338,8.0,28.0,14,0.00,,,0.00,meteohub,2013-05-31 21:39:00,
2013-05-31 15:44:00,58.6,9.5,29.75,NW,305,7.0,28.0,14,0.00,,,0.00,meteohub,2013-05-31 21:44:00,
2013-05-31 15:49:00,58.6,9.5,29.75,WNW,298,14.0,23.0,14,0.00,,,0.00,meteohub,2013-05-31 21:49:00,
2013-05-31 15:54:00,58.5,9.5,29.75,NW,326,24.0,24.0,14,0.00,,,0.00,meteohub,2013-05-31 21:54:00,
2013-05-31 15:59:00,57.7,8.8,29.75,WSW,242,12.0,24.0,14,0.00,,,0.00,meteohub,2013-05-31 21:59:00,
2013-05-31 16:04:00,59.4,8.4,29.75,NNW,335,9.0,24.0,13,0.00,,,0.00,meteohub,2013-05-31 22:04:00,
2013-05-31 16:09:00,59.5,6.8,29.75,WSW,252,8.0,24.0,12,0.00,,,0.00,meteohub,2013-05-31 22:09:00,
2013-05-31 16:14:00,59.4,8.4,29.74,WNW,302,16.0,22.0,13,0.00,,,0.00,meteohub,2013-05-31 22:14:00,
2013-05-31 16:19:00,59.5,6.8,29.74,West,269,19.0,22.0,12,0.00,,,0.00,meteohub,2013-05-31 22:19:00,
2013-05-31 16:24:00,59.2,6.6,29.75,NW,319,22.0,27.0,12,0.00,,,0.00,meteohub,2013-05-31 22:24:00,
2013-05-31 16:29:00,58.8,4.5,29.75,NW,308,11.0,27.0,11,0.00,,,0.00,meteohub,2013-05-31 22:29:00,
2013-05-31 16:35:00,59.4,6.8,29.75,NNW,330,20.0,25.0,12,0.00,,,0.00,meteohub,2013-05-31 22:35:00,
2013-05-31 16:40:00,59.4,8.4,29.75,NNW,328,13.0,29.0,13,0.00,,,0.00,meteohub,2013-05-31 22:40:00,
2013-05-31 16:45:00,58.5,7.7,29.75,WNW,300,13.0,29.0,13,0.00,,,0.00,meteohub,2013-05-31 22:45:00,
2013-05-31 16:50:00,58.3,10.8,29.75,NW,323,9.0,29.0,15,0.00,,,0.00,meteohub,2013-05-31 22:50:00,
2013-05-31 16:55:00,58.5,9.5,29.75,NNW,339,12.0,33.0,14,0.00,,,0.00,meteohub,2013-05-31 22:55:00,
2013-05-31 17:00:00,58.5,9.5,29.75,NNW,336,8.0,33.0,14,0.00,,,0.00,meteohub,2013-05-31 23:00:00,
2013-05-31 17:05:00,57.9,9.0,29.76,NNW,329,16.0,33.0,14,0.00,,,0.00,meteohub,2013-05-31 23:05:00,
2013-05-31 17:10:00,57.7,10.4,29.76,West,264,13.0,32.0,15,0.00,,,0.00,meteohub,2013-05-31 23:10:00,
2013-05-31 17:15:00,57.2,9.9,29.76,NW,321,7.0,32.0,15,0.00,,,0.00,meteohub,2013-05-31 23:15:00,
2013-05-31 17:20:00,56.7,10.9,29.76,NNE,14,15.0,27.0,16,0.00,,,0.00,meteohub,2013-05-31 23:20:00,
2013-05-31 17:25:00,56.8,9.7,29.75,NW,318,27.0,27.0,15,0.00,,,0.00,meteohub,2013-05-31 23:25:00,
2013-05-31 17:30:00,56.8,8.1,29.77,NNW,332,27.0,27.0,14,0.00,,,0.00,meteohub,2013-05-31 23:30:00,
2013-05-31 17:35:00,57.0,8.2,29.76,NW,326,16.0,35.0,14,0.00,,,0.00,meteohub,2013-05-31 23:35:00,
2013-05-31 17:40:00,57.6,10.2,29.77,NW,322,11.0,35.0,15,0.00,,,0.00,meteohub,2013-05-31 23:40:00,
2013-05-31 17:45:00,58.1,12.2,29.76,NNW,332,12.0,35.0,16,0.00,,,0.00,meteohub,2013-05-31 23:45:00,
2013-05-31 17:50:00,57.9,9.0,29.77,NNW,336,22.0,27.0,14,0.00,,,0.00,meteohub,2013-05-31 23:50:00,
2013-05-31 17:56:00,57.4,8.6,29.77,NNW,338,10.0,26.0,14,0.00,,,0.00,meteohub,2013-05-31 23:56:00,
2013-05-31 18:01:00,57.6,8.8,29.77,NW,319,17.0,26.0,14,0.00,,,0.00,meteohub,2013-06-01 00:01:00,
2013-05-31 18:06:00,57.2,8.4,29.78,NW,315,7.0,26.0,14,0.00,,,0.00,meteohub,2013-06-01 00:06:00,
2013-05-31 18:11:00,57.0,8.2,29.77,NW,321,23.0,24.0,14,0.00,,,0.00,meteohub,2013-06-01 00:11:00,
2013-05-31 18:16:00,57.0,8.2,29.76,NNW,327,20.0,29.0,14,0.00,,,0.00,meteohub,2013-06-01 00:16:00,
2013-05-31 18:21:00,56.7,8.1,29.78,NW,326,18.0,41.0,14,0.00,,,0.00,meteohub,2013-06-01 00:21:00,
2013-05-31 18:26:00,56.8,9.7,29.77,NW,304,11.0,41.0,15,0.00,,,0.00,meteohub,2013-06-01 00:26:00,
2013-05-31 18:31:00,57.0,8.2,29.78,NNW,336,15.0,41.0,14,0.00,,,0.00,meteohub,2013-06-01 00:31:00,
2013-05-31 18:36:00,56.8,8.1,29.78,NW,304,13.0,30.0,14,0.00,,,0.00,meteohub,2013-06-01 00:36:00,
2013-05-31 18:41:00,56.5,9.3,29.78,NNW,338,18.0,32.0,15,0.00,,,0.00,meteohub,2013-06-01 00:41:00,
2013-05-31 18:46:00,56.3,9.1,29.79,NNW,330,15.0,32.0,15,0.00,,,0.00,meteohub,2013-06-01 00:46:00,
2013-05-31 18:51:00,56.1,9.1,29.79,NW,325,8.0,27.0,15,0.00,,,0.00,meteohub,2013-06-01 00:51:00,
2013-05-31 18:56:00,56.1,9.1,29.79,NNW,334,10.0,25.0,15,0.00,,,0.00,meteohub,2013-06-01 00:56:00,
2013-05-31 19:01:00,55.9,10.4,29.79,North,9,17.0,27.0,16,0.00,,,0.00,meteohub,2013-06-01 01:01:00,
2013-05-31 19:07:00,55.9,9.0,29.79,NNW,339,9.0,27.0,15,0.00,,,0.00,meteohub,2013-06-01 01:07:00,
2013-05-31 19:12:00,55.9,9.0,29.80,NNW,327,8.0,23.0,15,0.00,,,0.00,meteohub,2013-06-01 01:12:00,
2013-05-31 19:17:00,55.9,9.0,29.80,NW,321,7.0,25.0,15,0.00,,,0.00,meteohub,2013-06-01 01:17:00,
2013-05-31 19:22:00,55.8,10.2,29.80,NNE,16,13.0,25.0,16,0.00,,,0.00,meteohub,2013-06-01 01:22:00,
2013-05-31 19:27:00,55.6,10.0,29.80,NNW,330,8.0,17.0,16,0.00,,,0.00,meteohub,2013-06-01 01:27:00,
2013-05-31 19:32:00,55.6,10.0,29.80,NNW,336,6.0,17.0,16,0.00,,,0.00,meteohub,2013-06-01 01:32:00,
2013-05-31 19:37:00,55.4,9.9,29.80,NNW,332,18.0,18.0,16,0.00,,,0.00,meteohub,2013-06-01 01:37:00,
2013-05-31 19:42:00,55.0,9.7,29.81,NW,320,10.0,23.0,16,0.00,,,0.00,meteohub,2013-06-01 01:42:00,
2013-05-31 19:47:00,54.9,9.5,29.81,NNW,342,8.0,23.0,16,0.00,,,0.00,meteohub,2013-06-01 01:47:00,
2013-05-31 19:52:00,54.3,10.4,29.81,NNW,338,8.0,23.0,17,0.00,,,0.00,meteohub,2013-06-01 01:52:00,
2013-05-31 19:57:00,53.8,10.0,29.81,NW,318,10.0,19.0,17,0.00,,,0.00,meteohub,2013-06-01 01:57:00,
2013-05-31 20:02:00,53.1,9.3,29.81,NNW,330,7.0,15.0,17,0.00,,,0.00,meteohub,2013-06-01 02:02:00,
2013-05-31 20:07:00,52.5,10.2,29.81,NW,321,6.0,16.0,18,0.00,,,0.00,meteohub,2013-06-01 02:07:00,
2013-05-31 20:12:00,52.2,11.1,29.81,NW,321,7.0,16.0,19,0.00,,,0.00,meteohub,2013-06-01 02:12:00,
2013-05-31 20:17:00,51.6,10.8,29.81,NW,307,2.0,16.0,19,0.00,,,0.00,meteohub,2013-06-01 02:17:00,
2013-05-31 20:22:00,51.3,9.1,29.81,NNW,328,2.0,9.0,18,0.00,,,0.00,meteohub,2013-06-01 02:22:00,
2013-05-31 20:27:00,51.3,9.1,29.82,WNW,294,3.0,9.0,18,0.00,,,0.00,meteohub,2013-06-01 02:27:00,
2013-05-31 20:32:00,51.3,9.1,29.81,WNW,294,3.0,6.0,18,0.00,,,0.00,meteohub,2013-06-01 02:32:00,
2013-05-31 20:37:00,51.3,9.1,29.81,NW,323,7.0,7.0,18,0.00,,,0.00,meteohub,2013-06-01 02:37:00,
2013-05-31 20:42:00,51.1,10.2,29.82,NW,318,4.0,12.0,19,0.00,,,0.00,meteohub,2013-06-01 02:42:00,
2013-05-31 20:47:00,50.5,9.9,29.82,NNW,336,6.0,12.0,19,0.00,,,0.00,meteohub,2013-06-01 02:47:00,
2013-05-31 20:52:00,50.0,9.3,29.82,NNW,329,5.0,12.0,19,0.00,,,0.00,meteohub,2013-06-01 02:52:00,
2013-05-31 20:57:00,50.0,9.3,29.82,NNW,337,8.0,13.0,19,0.00,,,0.00,meteohub,2013-06-01 02:57:00,
2013-05-31 21:02:00,50.7,9.9,29.83,NW,312,4.0,13.0,19,0.00,,,0.00,meteohub,2013-06-01 03:02:00,
2013-05-31 21:07:00,50.5,9.9,29.83,NW,325,4.0,13.0,19,0.00,,,0.00,meteohub,2013-06-01 03:07:00,
2013-05-31 21:12:00,50.0,10.4,29.83,NNW,340,5.0,13.0,20,0.00,,,0.00,meteohub,2013-06-01 03:12:00,
2013-05-31 21:17:00,49.6,10.2,29.83,NNE,12,7.0,7.0,20,0.00,,,0.00,meteohub,2013-06-01 03:17:00,
2013-05-31 21:22:00,49.8,9.1,29.83,NW,325,4.0,9.0,19,0.00,,,0.00,meteohub,2013-06-01 03:22:00,
2013-05-31 21:27:00,49.8,9.1,29.84,NW,305,3.0,9.0,19,0.00,,,0.00,meteohub,2013-06-01 03:27:00,
2013-05-31 21:32:00,50.0,9.3,29.84,WNW,287,6.0,9.0,19,0.00,,,0.00,meteohub,2013-06-01 03:32:00,
2013-05-31 21:37:00,50.4,8.4,29.84,NNW,340,4.0,8.0,18,0.00,,,0.00,meteohub,2013-06-01 03:37:00,
2013-05-31 21:42:00,49.8,9.1,29.85,WNW,282,3.0,8.0,19,0.00,,,0.00,meteohub,2013-06-01 03:42:00,
2013-05-31 21:47:00,49.8,9.1,29.85,WNW,298,3.0,8.0,19,0.00,,,0.00,meteohub,2013-06-01 03:47:00,
2013-05-31 21:52:00,49.6,9.0,29.86,NW,316,0.0,6.0,19,0.00,,,0.00,meteohub,2013-06-01 03:52:00,
2013-05-31 21:57:00,49.5,9.0,29.86,WNW,297,3.0,5.0,19,0.00,,,0.00,meteohub,2013-06-01 03:57:00,
2013-05-31 22:01:00,49.6,9.0,29.86,West,266,3.0,8.0,19,0.00,,,0.00,meteohub,2013-06-01 04:01:00,
2013-05-31 22:02:00,49.6,9.0,29.86,WNW,295,2.0,8.0,19,0.00,,,0.00,meteohub,2013-06-01 04:02:00,
2013-05-31 22:07:00,49.6,9.0,29.86,WNW,293,3.0,9.0,19,0.00,,,0.00,meteohub,2013-06-01 04:07:00,
2013-05-31 22:09:00,49.6,9.0,29.86,West,281,3.0,9.0,19,0.00,,,0.00,meteohub,2013-06-01 04:09:00,
2013-05-31 22:10:00,49.6,9.0,29.86,West,278,1.0,9.0,19,0.00,,,0.00,meteohub,2013-06-01 04:10:00,
2013-05-31 22:15:00,49.6,9.0,29.86,WNW,291,2.0,7.0,19,0.00,,,0.00,meteohub,2013-06-01 04:15:00,
2013-05-31 22:20:00,49.5,9.0,29.87,WSW,246,2.0,5.0,19,0.00,,,0.00,meteohub,2013-06-01 04:20:00,
2013-05-31 22:25:00,49.8,8.1,29.88,West,277,1.0,6.0,18,0.00,,,0.00,meteohub,2013-06-01 04:25:00,
2013-05-31 22:30:00,50.0,8.1,29.88,WSW,239,0.0,8.0,18,0.00,,,0.00,meteohub,2013-06-01 04:30:00,
2013-05-31 22:35:00,49.1,7.3,29.88,NNW,331,3.0,8.0,18,0.00,,,0.00,meteohub,2013-06-01 04:35:00,
2013-05-31 22:40:00,48.6,8.1,29.88,NW,324,2.0,8.0,19,0.00,,,0.00,meteohub,2013-06-01 04:40:00,
2013-05-31 22:45:00,48.6,8.1,29.89,NW,326,3.0,7.0,19,0.00,,,0.00,meteohub,2013-06-01 04:45:00,
2013-05-31 22:51:00,48.4,8.1,29.88,NNW,328,6.0,7.0,19,0.00,,,0.00,meteohub,2013-06-01 04:51:00,
2013-05-31 22:56:00,48.6,8.1,29.88,NNW,329,3.0,8.0,19,0.00,,,0.00,meteohub,2013-06-01 04:56:00,
2013-05-31 23:01:00,48.6,8.1,29.89,NNW,329,2.0,8.0,19,0.00,,,0.00,meteohub,2013-06-01 05:01:00,
2013-05-31 23:06:00,47.8,8.6,29.89,NW,306,2.0,8.0,20,0.00,,,0.00,meteohub,2013-06-01 05:06:00,
2013-05-31 23:11:00,47.7,8.6,29.90,WNW,291,3.0,4.0,20,0.00,,,0.00,meteohub,2013-06-01 05:11:00,
2013-05-31 23:16:00,48.0,7.7,29.90,North,349,2.0,6.0,19,0.00,,,0.00,meteohub,2013-06-01 05:16:00,
2013-05-31 23:21:00,48.2,7.9,29.90,NW,321,7.0,7.0,19,0.00,,,0.00,meteohub,2013-06-01 05:21:00,
2013-05-31 23:26:00,47.8,8.6,29.90,NNW,329,4.0,7.0,20,0.00,,,0.00,meteohub,2013-06-01 05:26:00,
2013-05-31 23:31:00,47.7,8.6,29.91,NNW,334,4.0,7.0,20,0.00,,,0.00,meteohub,2013-06-01 05:31:00,
2013-05-31 23:36:00,47.1,8.1,29.91,NW,318,1.0,7.0,20,0.00,,,0.00,meteohub,2013-06-01 05:36:00,
2013-05-31 23:41:00,46.8,8.8,29.91,NNW,328,0.0,5.0,21,0.00,,,0.00,meteohub,2013-06-01 05:41:00,
2013-05-31 23:46:00,46.8,8.8,29.91,NNW,328,4.0,4.0,21,0.00,,,0.00,meteohub,2013-06-01 05:46:00,
2013-05-31 23:51:00,47.1,9.1,29.91,NW,323,3.0,6.0,21,0.00,,,0.00,meteohub,2013-06-01 05:51:00,
2013-05-31 23:56:00,46.8,8.8,29.91,NW,326,2.0,6.0,21,0.00,,,0.00,meteohub,2013-06-01 05:56:00,